sensor_id;sensor_type;location;lat;lon;timestamp;pressure;altitude;pressure_sealevel;temperature;humidity
19624;BME280;9959;49.798;9.928;2023-11-21T00:01:13;98999.75;;;8.06;100.00
19624;BME280;9959;49.798;9.928;2023-11-21T00:03:41;99000.59;;;8.00;100.00
19624;BME280;9959;49.798;9.928;2023-11-21T00:06:08;99003.47;;;8.05;100.00
19624;BME280;9959;49.798;9.928;2023-11-21T00:08:38;99011.53;;;7.98;100.00
19624;BME280;9959;49.798;9.928;2023-11-21T00:11:05;99003.09;;;7.95;100.00
19624;BME280;9959;49.798;9.928;2023-11-21T00:13:32;99008.06;;;7.91;100.00
19624;BME280;9959;49.798;9.928;2023-11-21T00:15:59;99017.53;;;7.94;100.00
19624;BME280;9959;49.798;9.928;2023-11-21T00:18:26;99011.97;;;7.95;100.00
19624;BME280;9959;49.798;9.928;2023-11-21T00:20:53;99010.94;;;7.96;100.00
19624;BME280;9959;49.798;9.928;2023-11-21T00:23:20;99014.25;;;7.92;100.00
19624;BME280;9959;49.798;9.928;2023-11-21T00:25:47;99006.81;;;7.94;100.00
19624;BME280;9959;49.798;9.928;2023-11-21T00:28:15;99009.28;;;7.95;100.00
19624;BME280;9959;49.798;9.928;2023-11-21T00:30:42;99012.84;;;7.82;100.00
19624;BME280;9959;49.798;9.928;2023-11-21T00:33:10;99015.69;;;7.94;100.00
19624;BME280;9959;49.798;9.928;2023-11-21T00:35:37;99015.47;;;8.02;100.00
19624;BME280;9959;49.798;9.928;2023-11-21T00:38:04;99018.75;;;7.98;100.00
19624;BME280;9959;49.798;9.928;2023-11-21T00:40:41;99019.78;;;7.97;100.00
19624;BME280;9959;49.798;9.928;2023-11-21T00:43:09;99021.47;;;7.91;100.00
19624;BME280;9959;49.798;9.928;2023-11-21T00:45:36;99017.53;;;8.00;100.00
19624;BME280;9959;49.798;9.928;2023-11-21T00:48:03;99021.44;;;7.98;100.00
19624;BME280;9959;49.798;9.928;2023-11-21T00:50:31;99027.44;;;8.00;100.00
19624;BME280;9959;49.798;9.928;2023-11-21T00:52:58;99022.06;;;8.00;100.00
19624;BME280;9959;49.798;9.928;2023-11-21T00:55:25;99025.97;;;8.04;100.00
19624;BME280;9959;49.798;9.928;2023-11-21T00:57:53;99029.34;;;7.86;100.00
19624;BME280;9959;49.798;9.928;2023-11-21T01:00:20;99018.41;;;7.88;100.00
19624;BME280;9959;49.798;9.928;2023-11-21T01:02:47;99020.22;;;7.94;100.00
19624;BME280;9959;49.798;9.928;2023-11-21T01:05:18;99022.47;;;7.97;100.00
19624;BME280;9959;49.798;9.928;2023-11-21T01:07:46;99015.88;;;8.06;100.00
19624;BME280;9959;49.798;9.928;2023-11-21T01:10:13;99014.63;;;7.95;100.00
19624;BME280;9959;49.798;9.928;2023-11-21T01:12:41;99016.94;;;7.92;100.00
19624;BME280;9959;49.798;9.928;2023-11-21T01:15:08;99018.56;;;7.99;100.00
19624;BME280;9959;49.798;9.928;2023-11-21T01:17:38;99018.75;;;7.98;100.00
19624;BME280;9959;49.798;9.928;2023-11-21T01:20:06;99018.19;;;7.89;100.00
19624;BME280;9959;49.798;9.928;2023-11-21T01:22:40;99012.41;;;7.86;100.00
19624;BME280;9959;49.798;9.928;2023-11-21T01:25:08;99020.47;;;7.86;100.00
19624;BME280;9959;49.798;9.928;2023-11-21T01:27:35;99017.56;;;7.80;100.00
19624;BME280;9959;49.798;9.928;2023-11-21T01:30:02;99008.50;;;7.81;100.00
19624;BME280;9959;49.798;9.928;2023-11-21T01:32:29;99016.75;;;7.80;100.00
19624;BME280;9959;49.798;9.928;2023-11-21T01:34:56;99021.28;;;7.79;100.00
19624;BME280;9959;49.798;9.928;2023-11-21T01:37:23;99023.97;;;7.79;100.00
19624;BME280;9959;49.798;9.928;2023-11-21T01:39:51;99022.94;;;7.80;100.00
19624;BME280;9959;49.798;9.928;2023-11-21T01:42:18;99022.94;;;7.80;100.00
19624;BME280;9959;49.798;9.928;2023-11-21T01:44:45;99023.34;;;7.77;100.00
19624;BME280;9959;49.798;9.928;2023-11-21T01:47:13;99024.59;;;7.75;100.00
19624;BME280;9959;49.798;9.928;2023-11-21T01:49:43;99022.13;;;7.73;100.00
19624;BME280;9959;49.798;9.928;2023-11-21T01:52:11;99019.03;;;7.76;100.00
19624;BME280;9959;49.798;9.928;2023-11-21T01:54:39;99018.41;;;7.68;100.00
19624;BME280;9959;49.798;9.928;2023-11-21T01:57:06;99018.63;;;7.66;100.00
19624;BME280;9959;49.798;9.928;2023-11-21T01:59:37;99012.22;;;7.67;100.00
19624;BME280;9959;49.798;9.928;2023-11-21T02:02:05;99021.94;;;7.62;100.00
19624;BME280;9959;49.798;9.928;2023-11-21T02:04:33;99018.41;;;7.74;100.00
19624;BME280;9959;49.798;9.928;2023-11-21T02:07:01;99022.53;;;7.70;100.00
19624;BME280;9959;49.798;9.928;2023-11-21T02:09:28;99019.22;;;7.68;100.00
19624;BME280;9959;49.798;9.928;2023-11-21T02:12:00;99019.69;;;7.65;100.00
19624;BME280;9959;49.798;9.928;2023-11-21T02:14:27;99023.56;;;7.76;100.00
19624;BME280;9959;49.798;9.928;2023-11-21T02:16:55;99024.59;;;7.68;100.00
19624;BME280;9959;49.798;9.928;2023-11-21T02:19:24;99020.06;;;7.75;100.00
19624;BME280;9959;49.798;9.928;2023-11-21T02:21:52;99018.41;;;7.74;100.00
19624;BME280;9959;49.798;9.928;2023-11-21T02:24:20;99026.25;;;7.69;100.00
19624;BME280;9959;49.798;9.928;2023-11-21T02:26:48;99022.16;;;7.60;100.00
19624;BME280;9959;49.798;9.928;2023-11-21T02:29:18;99023.81;;;7.61;100.00
19624;BME280;9959;49.798;9.928;2023-11-21T02:31:52;99024.22;;;7.58;100.00
19624;BME280;9959;49.798;9.928;2023-11-21T02:34:22;99020.91;;;7.50;100.00
19624;BME280;9959;49.798;9.928;2023-11-21T02:36:49;99020.91;;;7.43;100.00
19624;BME280;9959;49.798;9.928;2023-11-21T02:39:16;99018.44;;;7.48;100.00
19624;BME280;9959;49.798;9.928;2023-11-21T02:41:44;99017.81;;;7.46;100.00
19624;BME280;9959;49.798;9.928;2023-11-21T02:44:11;99012.88;;;7.43;100.00
19624;BME280;9959;49.798;9.928;2023-11-21T02:46:38;99013.91;;;7.42;100.00
19624;BME280;9959;49.798;9.928;2023-11-21T02:49:07;99022.97;;;7.41;100.00
19624;BME280;9959;49.798;9.928;2023-11-21T02:51:36;99017.81;;;7.39;100.00
19624;BME280;9959;49.798;9.928;2023-11-21T02:54:05;99017.00;;;7.39;100.00
19624;BME280;9959;49.798;9.928;2023-11-21T02:56:35;99018.22;;;7.43;100.00
19624;BME280;9959;49.798;9.928;2023-11-21T02:59:02;99016.78;;;7.54;100.00
19624;BME280;9959;49.798;9.928;2023-11-21T03:01:29;99017.19;;;7.57;100.00
19624;BME280;9959;49.798;9.928;2023-11-21T03:03:56;99016.38;;;7.50;100.00
19624;BME280;9959;49.798;9.928;2023-11-21T03:06:23;99020.50;;;7.59;100.00
19624;BME280;9959;49.798;9.928;2023-11-21T03:08:50;99021.94;;;7.62;100.00
19624;BME280;9959;49.798;9.928;2023-11-21T03:11:17;99024.22;;;7.58;100.00
19624;BME280;9959;49.798;9.928;2023-11-21T03:13:45;99026.28;;;7.56;100.00
19624;BME280;9959;49.798;9.928;2023-11-21T03:16:13;99028.75;;;7.64;100.00
19624;BME280;9959;49.798;9.928;2023-11-21T03:18:40;99022.97;;;7.61;100.00
19624;BME280;9959;49.798;9.928;2023-11-21T03:21:08;99027.50;;;7.60;100.00
19624;BME280;9959;49.798;9.928;2023-11-21T03:23:38;99021.75;;;7.57;100.00
19624;BME280;9959;49.798;9.928;2023-11-21T03:26:04;99025.03;;;7.52;100.00
19624;BME280;9959;49.798;9.928;2023-11-21T03:28:32;99026.06;;;7.51;100.00
19624;BME280;9959;49.798;9.928;2023-11-21T03:30:59;99032.25;;;7.45;100.00
19624;BME280;9959;49.798;9.928;2023-11-21T03:33:27;99029.16;;;7.48;100.00
19624;BME280;9959;49.798;9.928;2023-11-21T03:35:54;99022.56;;;7.51;100.00
19624;BME280;9959;49.798;9.928;2023-11-21T03:38:21;99029.16;;;7.48;100.00
19624;BME280;9959;49.798;9.928;2023-11-21T03:40:48;99024.63;;;7.42;100.00
19624;BME280;9959;49.798;9.928;2023-11-21T03:43:15;99030.59;;;7.44;100.00
19624;BME280;9959;49.798;9.928;2023-11-21T03:45:43;99025.44;;;7.49;100.00
19624;BME280;9959;49.798;9.928;2023-11-21T03:48:12;99026.47;;;7.48;100.00
19624;BME280;9959;49.798;9.928;2023-11-21T03:50:39;99029.78;;;7.50;100.00
19624;BME280;9959;49.798;9.928;2023-11-21T03:53:06;99026.28;;;7.50;100.00
19624;BME280;9959;49.798;9.928;2023-11-21T03:55:33;99028.31;;;7.41;100.00
19624;BME280;9959;49.798;9.928;2023-11-21T03:58:01;99034.72;;;7.53;100.00
19624;BME280;9959;49.798;9.928;2023-11-21T04:00:31;99032.88;;;7.40;100.00
19624;BME280;9959;49.798;9.928;2023-11-21T04:02:58;99033.50;;;7.49;100.00
19624;BME280;9959;49.798;9.928;2023-11-21T04:05:28;99036.16;;;7.49;100.00
19624;BME280;9959;49.798;9.928;2023-11-21T04:07:55;99040.28;;;7.52;100.00
19624;BME280;9959;49.798;9.928;2023-11-21T04:10:22;99036.16;;;7.49;100.00
19624;BME280;9959;49.798;9.928;2023-11-21T04:12:49;99044.81;;;7.51;100.00
19624;BME280;9959;49.798;9.928;2023-11-21T04:15:16;99044.00;;;7.57;100.00
19624;BME280;9959;49.798;9.928;2023-11-21T04:17:44;99042.78;;;7.53;100.00
19624;BME280;9959;49.798;9.928;2023-11-21T04:20:12;99043.19;;;7.50;100.00
19624;BME280;9959;49.798;9.928;2023-11-21T04:22:39;99040.09;;;7.53;100.00
19624;BME280;9959;49.798;9.928;2023-11-21T04:25:12;99052.06;;;7.57;100.00
19624;BME280;9959;49.798;9.928;2023-11-21T04:27:40;99046.91;;;7.56;100.00
19624;BME280;9959;49.798;9.928;2023-11-21T04:30:11;99043.19;;;7.50;100.00
19624;BME280;9959;49.798;9.928;2023-11-21T04:32:39;99062.16;;;7.55;100.00
19624;BME280;9959;49.798;9.928;2023-11-21T04:35:06;99059.88;;;7.45;100.00
19624;BME280;9959;49.798;9.928;2023-11-21T04:37:35;99061.09;;;7.43;100.00
19624;BME280;9959;49.798;9.928;2023-11-21T04:40:03;99063.19;;;7.54;100.00
19624;BME280;9959;49.798;9.928;2023-11-21T04:42:37;99057.19;;;7.52;100.00
19624;BME280;9959;49.798;9.928;2023-11-21T04:45:05;99069.78;;;7.52;100.00
19624;BME280;9959;49.798;9.928;2023-11-21T04:47:36;99066.47;;;7.56;100.00
19624;BME280;9959;49.798;9.928;2023-11-21T04:50:04;99069.97;;;7.50;100.00
19624;BME280;9959;49.798;9.928;2023-11-21T04:52:37;99069.16;;;7.50;100.00
19624;BME280;9959;49.798;9.928;2023-11-21T04:55:04;99063.78;;;7.50;100.00
19624;BME280;9959;49.798;9.928;2023-11-21T04:57:33;99073.28;;;7.52;100.00
19624;BME280;9959;49.798;9.928;2023-11-21T05:00:00;99071.63;;;7.44;100.00
19624;BME280;9959;49.798;9.928;2023-11-21T05:02:27;99075.75;;;7.47;100.00
19624;BME280;9959;49.798;9.928;2023-11-21T05:05:02;99079.25;;;7.47;100.00
19624;BME280;9959;49.798;9.928;2023-11-21T05:07:29;99081.50;;;7.44;100.00
19624;BME280;9959;49.798;9.928;2023-11-21T05:09:58;99082.13;;;7.46;100.00
19624;BME280;9959;49.798;9.928;2023-11-21T05:12:25;99081.53;;;7.37;100.00
19624;BME280;9959;49.798;9.928;2023-11-21T05:14:52;99086.06;;;7.37;100.00
19624;BME280;9959;49.798;9.928;2023-11-21T05:17:19;99086.47;;;7.34;100.00
19624;BME280;9959;49.798;9.928;2023-11-21T05:19:47;99081.94;;;7.34;100.00
19624;BME280;9959;49.798;9.928;2023-11-21T05:22:16;99085.03;;;7.31;100.00
19624;BME280;9959;49.798;9.928;2023-11-21T05:24:43;99091.00;;;7.27;100.00
19624;BME280;9959;49.798;9.928;2023-11-21T05:27:10;99084.81;;;7.33;100.00
19624;BME280;9959;49.798;9.928;2023-11-21T05:29:37;99087.72;;;7.38;100.00
19624;BME280;9959;49.798;9.928;2023-11-21T05:32:07;99094.69;;;7.39;100.00
19624;BME280;9959;49.798;9.928;2023-11-21T05:34:34;99100.06;;;7.39;100.00
19624;BME280;9959;49.798;9.928;2023-11-21T05:37:01;99102.97;;;7.44;100.00
19624;BME280;9959;49.798;9.928;2023-11-21T05:39:29;99110.16;;;7.43;100.00
19624;BME280;9959;49.798;9.928;2023-11-21T05:41:56;99108.31;;;7.51;100.00
19624;BME280;9959;49.798;9.928;2023-11-21T05:44:24;99108.72;;;7.41;100.00
19624;BME280;9959;49.798;9.928;2023-11-21T05:46:51;99107.69;;;7.42;100.00
19624;BME280;9959;49.798;9.928;2023-11-21T05:49:19;99110.38;;;7.42;100.00
19624;BME280;9959;49.798;9.928;2023-11-21T05:51:49;99112.44;;;7.40;100.00
19624;BME280;9959;49.798;9.928;2023-11-21T05:54:16;99121.09;;;7.42;100.00
19624;BME280;9959;49.798;9.928;2023-11-21T05:56:43;99115.75;;;7.35;100.00
19624;BME280;9959;49.798;9.928;2023-11-21T05:59:10;99116.75;;;7.41;100.00
19624;BME280;9959;49.798;9.928;2023-11-21T06:01:38;99121.31;;;7.47;100.00
19624;BME280;9959;49.798;9.928;2023-11-21T06:04:05;99116.38;;;7.57;100.00
19624;BME280;9959;49.798;9.928;2023-11-21T06:06:35;99128.94;;;7.37;100.00
19624;BME280;9959;49.798;9.928;2023-11-21T06:09:02;99145.44;;;7.34;100.00
19624;BME280;9959;49.798;9.928;2023-11-21T06:11:30;99138.41;;;7.33;100.00
19624;BME280;9959;49.798;9.928;2023-11-21T06:13:57;99152.03;;;7.38;100.00
19624;BME280;9959;49.798;9.928;2023-11-21T06:16:24;99147.25;;;7.40;100.00
19624;BME280;9959;49.798;9.928;2023-11-21T06:18:52;99151.22;;;7.37;100.00
19624;BME280;9959;49.798;9.928;2023-11-21T06:21:19;99158.41;;;7.30;100.00
19624;BME280;9959;49.798;9.928;2023-11-21T06:23:47;99159.66;;;7.34;100.00
19624;BME280;9959;49.798;9.928;2023-11-21T06:26:19;99162.72;;;7.31;100.00
19624;BME280;9959;49.798;9.928;2023-11-21T06:28:47;99162.72;;;7.31;100.00
19624;BME280;9959;49.798;9.928;2023-11-21T06:31:14;99169.13;;;7.37;100.00
19624;BME280;9959;49.798;9.928;2023-11-21T06:33:41;99168.91;;;7.32;100.00
19624;BME280;9959;49.798;9.928;2023-11-21T06:36:10;99167.47;;;7.36;100.00
19624;BME280;9959;49.798;9.928;2023-11-21T06:38:38;99168.94;;;7.45;100.00
19624;BME280;9959;49.798;9.928;2023-11-21T06:41:06;99178.00;;;7.44;100.00
19624;BME280;9959;49.798;9.928;2023-11-21T06:43:49;99177.38;;;7.48;100.00
19624;BME280;9959;49.798;9.928;2023-11-21T06:46:21;99179.25;;;7.55;100.00
19624;BME280;9959;49.798;9.928;2023-11-21T06:48:49;99180.91;;;7.49;100.00
19624;BME280;9959;49.798;9.928;2023-11-21T06:51:16;99179.47;;;7.53;100.00
19624;BME280;9959;49.798;9.928;2023-11-21T06:53:44;99188.72;;;7.51;100.00
19624;BME280;9959;49.798;9.928;2023-11-21T06:56:17;99194.06;;;7.44;100.00
19624;BME280;9959;49.798;9.928;2023-11-21T06:58:47;99194.69;;;7.46;100.00
19624;BME280;9959;49.798;9.928;2023-11-21T07:01:14;99200.47;;;7.43;100.00
19624;BME280;9959;49.798;9.928;2023-11-21T07:03:42;99196.75;;;7.44;100.00
19624;BME280;9959;49.798;9.928;2023-11-21T07:06:10;99196.97;;;7.49;100.00
19624;BME280;9959;49.798;9.928;2023-11-21T07:08:37;99209.78;;;7.54;100.00
19624;BME280;9959;49.798;9.928;2023-11-21T07:11:05;99219.69;;;7.66;100.00
19624;BME280;9959;49.798;9.928;2023-11-21T07:13:32;99225.88;;;7.73;100.00
19624;BME280;9959;49.798;9.928;2023-11-21T07:16:00;99225.53;;;7.90;100.00
19624;BME280;9959;49.798;9.928;2023-11-21T07:18:28;99223.91;;;8.35;100.00
19624;BME280;9959;49.798;9.928;2023-11-21T07:20:55;99222.63;;;8.24;100.00
19624;BME280;9959;49.798;9.928;2023-11-21T07:23:23;99234.19;;;8.25;100.00
19624;BME280;9959;49.798;9.928;2023-11-21T07:25:50;99221.81;;;8.10;100.00
19624;BME280;9959;49.798;9.928;2023-11-21T07:28:18;99238.72;;;7.98;100.00
19624;BME280;9959;49.798;9.928;2023-11-21T07:30:45;99234.19;;;8.05;100.00
19624;BME280;9959;49.798;9.928;2023-11-21T07:33:14;99240.38;;;7.86;100.00
19624;BME280;9959;49.798;9.928;2023-11-21T07:35:41;99236.25;;;7.90;100.00
19624;BME280;9959;49.798;9.928;2023-11-21T07:38:09;99241.19;;;7.99;100.00
19624;BME280;9959;49.798;9.928;2023-11-21T07:40:38;99240.75;;;7.82;100.00
19624;BME280;9959;49.798;9.928;2023-11-21T07:43:06;99240.78;;;8.22;100.00
19624;BME280;9959;49.798;9.928;2023-11-21T07:45:34;99254.81;;;7.98;100.00
19624;BME280;9959;49.798;9.928;2023-11-21T07:48:01;99256.84;;;7.96;100.00
19624;BME280;9959;49.798;9.928;2023-11-21T07:50:30;99267.81;;;8.01;100.00
19624;BME280;9959;49.798;9.928;2023-11-21T07:52:59;99261.47;;;8.35;100.00
19624;BME280;9959;49.798;9.928;2023-11-21T07:55:27;99258.09;;;8.00;100.00
19624;BME280;9959;49.798;9.928;2023-11-21T07:57:55;99263.47;;;8.00;100.00
19624;BME280;9959;49.798;9.928;2023-11-21T08:00:24;99270.50;;;8.07;100.00
19624;BME280;9959;49.798;9.928;2023-11-21T08:02:51;99262.50;;;8.34;100.00
19624;BME280;9959;49.798;9.928;2023-11-21T08:05:22;99268.91;;;8.39;100.00
19624;BME280;9959;49.798;9.928;2023-11-21T08:08:00;99279.22;;;8.36;100.00
19624;BME280;9959;49.798;9.928;2023-11-21T08:10:31;99282.47;;;8.25;100.00
19624;BME280;9959;49.798;9.928;2023-11-21T08:12:58;99285.97;;;8.05;100.00
19624;BME280;9959;49.798;9.928;2023-11-21T08:15:26;99292.78;;;8.21;100.00
19624;BME280;9959;49.798;9.928;2023-11-21T08:17:53;99289.94;;;8.16;100.00
19624;BME280;9959;49.798;9.928;2023-11-21T08:20:21;99291.63;;;8.37;100.00
19624;BME280;9959;49.798;9.928;2023-11-21T08:23:16;99299.25;;;8.46;100.00
19624;BME280;9959;49.798;9.928;2023-11-21T08:25:44;99298.16;;;8.08;100.00
19624;BME280;9959;49.798;9.928;2023-11-21T08:28:12;99303.13;;;8.24;100.00
19624;BME280;9959;49.798;9.928;2023-11-21T08:30:43;99305.00;;;8.17;100.00
19624;BME280;9959;49.798;9.928;2023-11-21T08:33:12;99309.53;;;8.10;100.00
19624;BME280;9959;49.798;9.928;2023-11-21T08:35:41;99295.69;;;8.13;100.00
19624;BME280;9959;49.798;9.928;2023-11-21T08:38:08;99297.53;;;8.06;100.00
19624;BME280;9959;49.798;9.928;2023-11-21T08:40:38;99301.47;;;8.23;100.00
19624;BME280;9959;49.798;9.928;2023-11-21T08:43:05;99305.00;;;8.17;100.00
19624;BME280;9959;49.798;9.928;2023-11-21T08:45:34;99303.53;;;8.21;100.00
19624;BME280;9959;49.798;9.928;2023-11-21T08:48:02;99310.75;;;8.14;100.00
19624;BME280;9959;49.798;9.928;2023-11-21T08:50:29;99314.69;;;8.11;100.00
19624;BME280;9959;49.798;9.928;2023-11-21T08:52:57;99311.78;;;8.13;100.00
19624;BME280;9959;49.798;9.928;2023-11-21T08:55:24;99309.34;;;8.51;100.00
19624;BME280;9959;49.798;9.928;2023-11-21T08:57:54;99308.53;;;8.51;100.00
19624;BME280;9959;49.798;9.928;2023-11-21T09:00:24;99313.06;;;8.50;100.00
19624;BME280;9959;49.798;9.928;2023-11-21T09:02:55;99306.44;;;8.79;100.00
19624;BME280;9959;49.798;9.928;2023-11-21T09:05:22;99312.66;;;8.60;100.00
19624;BME280;9959;49.798;9.928;2023-11-21T09:07:49;99313.06;;;8.76;100.00
19624;BME280;9959;49.798;9.928;2023-11-21T09:10:17;99316.56;;;8.77;100.00
19624;BME280;9959;49.798;9.928;2023-11-21T09:12:44;99324.25;;;8.67;100.00
19624;BME280;9959;49.798;9.928;2023-11-21T09:15:11;99324.22;;;8.80;100.00
19624;BME280;9959;49.798;9.928;2023-11-21T09:17:39;99323.19;;;8.81;100.00
19624;BME280;9959;49.798;9.928;2023-11-21T09:20:07;99326.50;;;8.83;100.00
19624;BME280;9959;49.798;9.928;2023-11-21T09:22:37;99327.31;;;8.83;100.00
19624;BME280;9959;49.798;9.928;2023-11-21T09:25:05;99334.13;;;8.86;100.00
19624;BME280;9959;49.798;9.928;2023-11-21T09:27:32;99338.88;;;8.97;100.00
19624;BME280;9959;49.798;9.928;2023-11-21T09:29:59;99332.47;;;8.98;100.00
19624;BME280;9959;49.798;9.928;2023-11-21T09:32:26;99347.56;;;8.79;100.00
19624;BME280;9959;49.798;9.928;2023-11-21T09:34:53;99347.78;;;8.78;100.00
19624;BME280;9959;49.798;9.928;2023-11-21T09:37:25;99342.63;;;8.70;100.00
19624;BME280;9959;49.798;9.928;2023-11-21T09:39:54;99347.97;;;8.96;100.00
19624;BME280;9959;49.798;9.928;2023-11-21T09:42:39;99352.69;;;9.07;100.00
19624;BME280;9959;49.798;9.928;2023-11-21T09:45:28;99356.88;;;8.90;100.00
19624;BME280;9959;49.798;9.928;2023-11-21T09:47:58;99365.09;;;9.08;100.00
19624;BME280;9959;49.798;9.928;2023-11-21T09:50:31;99367.59;;;9.10;100.00
19624;BME280;9959;49.798;9.928;2023-11-21T09:53:13;99366.91;;;9.34;100.00
19624;BME280;9959;49.798;9.928;2023-11-21T09:55:44;99369.16;;;9.44;100.00
19624;BME280;9959;49.798;9.928;2023-11-21T09:58:13;99375.38;;;9.51;100.00
19624;BME280;9959;49.798;9.928;2023-11-21T10:00:42;99373.94;;;9.35;100.00
19624;BME280;9959;49.798;9.928;2023-11-21T10:03:11;99371.66;;;9.32;100.00
19624;BME280;9959;49.798;9.928;2023-11-21T10:05:42;99368.56;;;9.35;100.00
19624;BME280;9959;49.798;9.928;2023-11-21T10:08:10;99375.59;;;9.43;100.00
19624;BME280;9959;49.798;9.928;2023-11-21T10:10:48;99378.66;;;9.53;100.00
19624;BME280;9959;49.798;9.928;2023-11-21T10:13:20;99375.72;;;9.61;100.00
19624;BME280;9959;49.798;9.928;2023-11-21T10:15:50;99375.97;;;9.53;100.00
19624;BME280;9959;49.798;9.928;2023-11-21T10:18:24;99379.03;;;9.63;100.00
19624;BME280;9959;49.798;9.928;2023-11-21T10:20:54;99375.97;;;9.53;100.00
19624;BME280;9959;49.798;9.928;2023-11-21T10:23:23;99375.28;;;9.77;100.00
19624;BME280;9959;49.798;9.928;2023-11-21T10:25:52;99369.56;;;9.54;100.00
19624;BME280;9959;49.798;9.928;2023-11-21T10:28:21;99371.44;;;9.98;100.00
19624;BME280;9959;49.798;9.928;2023-11-21T10:30:48;99373.53;;;9.90;100.00
19624;BME280;9959;49.798;9.928;2023-11-21T10:33:16;99373.63;;;9.76;100.00
19624;BME280;9959;49.798;9.928;2023-11-21T10:35:45;99371.44;;;9.98;100.00
19624;BME280;9959;49.798;9.928;2023-11-21T10:38:21;99369.81;;;9.91;100.00
19624;BME280;9959;49.798;9.928;2023-11-21T10:40:51;99371.41;;;10.05;100.00
19624;BME280;9959;49.798;9.928;2023-11-21T10:43:19;99374.69;;;9.62;100.00
19624;BME280;9959;49.798;9.928;2023-11-21T10:45:47;99376.13;;;9.71;100.00
19624;BME280;9959;49.798;9.928;2023-11-21T10:48:15;99380.66;;;9.71;100.00
19624;BME280;9959;49.798;9.928;2023-11-21T10:50:46;99389.13;;;9.74;100.00
19624;BME280;9959;49.798;9.928;2023-11-21T10:53:13;99385.19;;;9.83;100.00
19624;BME280;9959;49.798;9.928;2023-11-21T10:55:47;99385.44;;;10.20;100.00
19624;BME280;9959;49.798;9.928;2023-11-21T10:58:16;99383.22;;;10.04;100.00
19624;BME280;9959;49.798;9.928;2023-11-21T11:00:44;99386.97;;;9.96;100.00
19624;BME280;9959;49.798;9.928;2023-11-21T11:03:15;99387.16;;;10.01;100.00
19624;BME280;9959;49.798;9.928;2023-11-21T11:05:58;99389.56;;;10.16;100.00
19624;BME280;9959;49.798;9.928;2023-11-21T11:08:26;99383.47;;;9.96;100.00
19624;BME280;9959;49.798;9.928;2023-11-21T11:10:54;99380.44;;;10.17;98.67
19624;BME280;9959;49.798;9.928;2023-11-21T11:13:22;99380.53;;;10.04;97.49
19624;BME280;9959;49.798;9.928;2023-11-21T11:15:59;99385.81;;;10.24;96.36
19624;BME280;9959;49.798;9.928;2023-11-21T11:18:29;99385.31;;;10.40;96.26
19624;BME280;9959;49.798;9.928;2023-11-21T11:21:10;99387.09;;;10.21;95.95
19624;BME280;9959;49.798;9.928;2023-11-21T11:23:52;99385.69;;;10.12;96.27
19624;BME280;9959;49.798;9.928;2023-11-21T11:26:46;99386.25;;;10.21;95.25
19624;BME280;9959;49.798;9.928;2023-11-21T11:34:50;99392.66;;;10.58;94.64
19624;BME280;9959;49.798;9.928;2023-11-21T11:37:21;99397.47;;;10.80;91.41
19624;BME280;9959;49.798;9.928;2023-11-21T11:39:50;99392.56;;;10.71;90.23
19624;BME280;9959;49.798;9.928;2023-11-21T11:42:18;99394.13;;;10.15;94.65
19624;BME280;9959;49.798;9.928;2023-11-21T11:44:47;99394.09;;;10.60;92.78
19624;BME280;9959;49.798;9.928;2023-11-21T11:47:28;99397.72;;;10.97;90.72
19624;BME280;9959;49.798;9.928;2023-11-21T11:52:45;99400.91;;;10.63;92.60
19624;BME280;9959;49.798;9.928;2023-11-21T11:55:17;99402.56;;;10.64;91.21
19624;BME280;9959;49.798;9.928;2023-11-21T11:57:52;99400.81;;;10.76;89.80
19624;BME280;9959;49.798;9.928;2023-11-21T12:00:23;99402.63;;;10.82;89.53
19624;BME280;9959;49.798;9.928;2023-11-21T12:03:02;99404.38;;;10.95;88.87
19624;BME280;9959;49.798;9.928;2023-11-21T12:05:33;99399.66;;;11.15;86.81
19624;BME280;9959;49.798;9.928;2023-11-21T12:08:03;99408.28;;;11.24;84.49
19624;BME280;9959;49.798;9.928;2023-11-21T12:10:33;99405.22;;;10.95;83.46
19624;BME280;9959;49.798;9.928;2023-11-21T12:13:06;99405.22;;;11.20;82.53
19624;BME280;9959;49.798;9.928;2023-11-21T12:15:37;99404.22;;;11.14;83.01
19624;BME280;9959;49.798;9.928;2023-11-21T12:18:07;99408.34;;;11.97;76.66
19624;BME280;9959;49.798;9.928;2023-11-21T12:20:34;99407.97;;;12.41;74.59
19624;BME280;9959;49.798;9.928;2023-11-21T12:23:14;99410.22;;;14.60;66.50
19624;BME280;9959;49.798;9.928;2023-11-21T12:25:43;99412.44;;;12.89;70.28
19624;BME280;9959;49.798;9.928;2023-11-21T12:28:10;99412.41;;;13.31;68.80
19624;BME280;9959;49.798;9.928;2023-11-21T12:30:38;99410.88;;;17.98;53.53
19624;BME280;9959;49.798;9.928;2023-11-21T12:33:06;99410.59;;;19.33;49.29
19624;BME280;9959;49.798;9.928;2023-11-21T12:35:37;99409.59;;;20.13;45.85
19624;BME280;9959;49.798;9.928;2023-11-21T12:38:05;99412.53;;;15.90;56.23
19624;BME280;9959;49.798;9.928;2023-11-21T12:40:33;99407.84;;;19.22;48.87
19624;BME280;9959;49.798;9.928;2023-11-21T12:43:01;99412.25;;;16.84;53.28
19624;BME280;9959;49.798;9.928;2023-11-21T12:45:31;99417.06;;;15.46;56.36
19624;BME280;9959;49.798;9.928;2023-11-21T12:48:03;99414.31;;;15.79;56.08
19624;BME280;9959;49.798;9.928;2023-11-21T12:50:35;99422.28;;;13.60;62.39
19624;BME280;9959;49.798;9.928;2023-11-21T12:53:07;99410.63;;;15.52;56.69
19624;BME280;9959;49.798;9.928;2023-11-21T12:55:44;99416.75;;;15.59;55.77
19624;BME280;9959;49.798;9.928;2023-11-21T12:58:17;99421.53;;;15.18;56.32
19624;BME280;9959;49.798;9.928;2023-11-21T13:00:48;99424.75;;;13.50;63.04
19624;BME280;9959;49.798;9.928;2023-11-21T13:03:16;99433.84;;;12.91;64.69
19624;BME280;9959;49.798;9.928;2023-11-21T13:05:48;99426.03;;;13.24;64.71
19624;BME280;9959;49.798;9.928;2023-11-21T13:08:22;99428.41;;;12.79;65.95
19624;BME280;9959;49.798;9.928;2023-11-21T13:10:56;99437.16;;;13.04;64.53
19624;BME280;9959;49.798;9.928;2023-11-21T13:13:25;99432.72;;;13.21;65.02
19624;BME280;9959;49.798;9.928;2023-11-21T13:15:58;99430.22;;;12.07;68.54
19624;BME280;9959;49.798;9.928;2023-11-21T13:18:30;99425.06;;;12.53;66.71
19624;BME280;9959;49.798;9.928;2023-11-21T13:21:11;99427.31;;;12.38;67.01
19624;BME280;9959;49.798;9.928;2023-11-21T13:23:43;99432.72;;;11.72;70.33
19624;BME280;9959;49.798;9.928;2023-11-21T13:26:13;99431.25;;;11.51;71.16
19624;BME280;9959;49.798;9.928;2023-11-21T13:28:42;99438.38;;;11.45;70.84